CheckWX is a tool to help pilots better visualize weather data.  It is not intended as a substitute for an official pre-flight weather briefing.

13:36:09 UTC

KCNY TAF
Canyonlands Field Airport
Moab, Utah, USA
KCNY 181125Z 1812/1912 VRB04KT P6SM SKC FM181900 24008KT P6SM FEW200 FM190100 22011KT P6SM FEW200 FM190300 20008KT P6SM FEW200 FM190600 17005KT P6SM FEW200

Aug-18@
12:00 UTC

Aug-18 @ 12:00 UTC

Aug-18@
19:00 UTC

Aug-18 @ 19:00 UTC

KCNY 181125Z 1812/1912 VRB04KT P6SM SKC
Wind
  • Variable at 4 KTS
Cloud Levels
  • Clear skies

Aug-18@
19:00 UTC

Aug-18 @ 19:00 UTC

Aug-19@
01:00 UTC

Aug-19 @ 01:00 UTC

FM181900 24008KT P6SM FEW200

From

From Standard forecast or significant change

Wind
  • 240° at 8 KTS
Cloud Levels
  • Few at 20,000' AGL

Aug-19@
01:00 UTC

Aug-19 @ 01:00 UTC

Aug-19@
03:00 UTC

Aug-19 @ 03:00 UTC

FM190100 22011KT P6SM FEW200

From

From Standard forecast or significant change

Wind
  • 220° at 11 KTS
Cloud Levels
  • Few at 20,000' AGL

Aug-19@
03:00 UTC

Aug-19 @ 03:00 UTC

Aug-19@
06:00 UTC

Aug-19 @ 06:00 UTC

FM190300 20008KT P6SM FEW200

From

From Standard forecast or significant change

Wind
  • 200° at 8 KTS
Cloud Levels
  • Few at 20,000' AGL

Aug-19@
06:00 UTC

Aug-19 @ 06:00 UTC

Aug-19@
12:00 UTC

Aug-19 @ 12:00 UTC

FM190600 17005KT P6SM FEW200

From

From Standard forecast or significant change

Wind
  • 170° at 5 KTS
Cloud Levels
  • Few at 20,000' AGL